createdAt,value
2023-05-16T00:01:54.746Z,13.94
2023-05-16T00:04:23.015Z,14.08
2023-05-16T00:06:49.997Z,14.18
2023-05-16T00:09:17.884Z,14.22
2023-05-16T00:11:48.232Z,14.20
2023-05-16T00:14:15.265Z,14.36
2023-05-16T00:16:42.364Z,14.58
2023-05-16T00:19:10.541Z,14.57
2023-05-16T00:21:37.525Z,14.49
2023-05-16T00:24:05.868Z,14.52
2023-05-16T00:26:35.089Z,14.58
2023-05-16T00:29:04.500Z,14.66
2023-05-16T00:31:31.753Z,14.70
2023-05-16T00:34:01.146Z,14.67
2023-05-16T00:36:29.071Z,14.50
2023-05-16T00:38:56.453Z,14.60
2023-05-16T00:41:28.597Z,14.85
2023-05-16T00:43:57.960Z,14.72
2023-05-16T00:46:27.390Z,14.86
2023-05-16T00:48:54.508Z,14.66
2023-05-16T00:51:21.746Z,15.07
2023-05-16T00:53:48.869Z,15.13
2023-05-16T00:56:17.218Z,15.09
2023-05-16T00:58:44.543Z,15.13
2023-05-16T01:01:12.549Z,15.02
2023-05-16T01:03:39.909Z,14.77
2023-05-16T01:06:07.321Z,14.78
2023-05-16T01:08:34.307Z,14.75
2023-05-16T01:11:17.044Z,14.61
2023-05-16T01:14:08.598Z,14.70
2023-05-16T01:17:12.854Z,14.82
2023-05-16T01:20:15.297Z,14.94
2023-05-16T01:23:14.788Z,14.91
2023-05-16T01:26:16.119Z,15.10
2023-05-16T01:28:46.923Z,14.99
2023-05-16T01:31:14.286Z,14.95
2023-05-16T01:33:41.330Z,15.12
2023-05-16T01:36:22.605Z,15.25
2023-05-16T01:39:01.857Z,15.07
2023-05-16T01:41:35.562Z,15.05
2023-05-16T01:44:17.149Z,15.18
2023-05-16T01:46:48.292Z,15.07
2023-05-16T01:49:31.883Z,15.06
2023-05-16T01:52:11.836Z,15.17
2023-05-16T01:54:45.127Z,14.77
2023-05-16T01:57:16.347Z,14.81
2023-05-16T01:59:47.524Z,14.89
2023-05-16T02:02:14.871Z,14.88
2023-05-16T02:04:42.084Z,15.04
2023-05-16T02:07:09.201Z,15.23
2023-05-16T02:09:36.381Z,15.15
2023-05-16T02:12:04.546Z,15.03
2023-05-16T02:14:31.553Z,14.97
2023-05-16T02:16:58.820Z,15.18
2023-05-16T02:19:25.747Z,15.11
2023-05-16T02:21:55.735Z,15.09
2023-05-16T02:24:22.626Z,15.26
2023-05-16T02:26:49.669Z,15.02
2023-05-16T02:29:19.060Z,15.07
2023-05-16T02:31:48.279Z,14.82
2023-05-16T02:34:17.254Z,14.80
2023-05-16T02:36:44.190Z,14.81
2023-05-16T02:39:11.411Z,14.85
2023-05-16T02:41:38.463Z,15.03
2023-05-16T02:44:05.768Z,14.98
2023-05-16T02:46:52.860Z,14.92
2023-05-16T02:49:21.968Z,14.34
2023-05-16T02:51:49.042Z,14.16
2023-05-16T02:54:16.013Z,14.17
2023-05-16T02:56:45.137Z,14.57
2023-05-16T02:59:13.140Z,14.71
2023-05-16T03:01:40.390Z,14.47
2023-05-16T03:04:07.548Z,14.46
2023-05-16T03:06:37.054Z,14.37
2023-05-16T03:09:04.002Z,14.31
2023-05-16T03:11:31.035Z,14.33
2023-05-16T03:14:02.588Z,14.46
2023-05-16T03:16:29.552Z,14.34
2023-05-16T03:18:57.169Z,14.29
2023-05-16T03:21:24.200Z,14.39
2023-05-16T03:23:51.146Z,14.39
2023-05-16T03:26:21.351Z,14.45
2023-05-16T03:28:51.559Z,14.65
2023-05-16T03:31:18.570Z,14.60
2023-05-16T03:33:45.729Z,14.41
2023-05-16T03:36:12.790Z,14.20
2023-05-16T03:38:39.857Z,14.36
2023-05-16T03:41:09.281Z,14.36
2023-05-16T03:43:36.696Z,14.53
2023-05-16T03:46:06.357Z,14.48
2023-05-16T03:48:36.340Z,14.39
2023-05-16T03:51:03.335Z,14.25
2023-05-16T03:53:30.337Z,14.03
2023-05-16T03:55:57.375Z,14.17
2023-05-16T03:58:27.227Z,14.25
2023-05-16T04:00:56.564Z,14.42
2023-05-16T04:03:28.480Z,14.17
2023-05-16T04:06:00.806Z,14.39
2023-05-16T04:08:27.763Z,14.67
2023-05-16T04:10:57.773Z,14.37
2023-05-16T04:13:27.393Z,14.24
2023-05-16T04:15:54.562Z,14.39
2023-05-16T04:18:23.671Z,14.62
2023-05-16T04:20:50.611Z,14.95
2023-05-16T04:23:22.080Z,14.83
2023-05-16T04:25:49.098Z,14.64
2023-05-16T04:28:18.411Z,14.67
2023-05-16T04:30:48.745Z,14.72
2023-05-16T04:33:16.727Z,14.73
2023-05-16T04:35:49.908Z,14.92
2023-05-16T04:38:16.913Z,14.71
2023-05-16T04:40:46.872Z,14.51
2023-05-16T04:43:13.972Z,14.43
2023-05-16T04:45:42.874Z,14.46
2023-05-16T04:48:10.737Z,13.99
2023-05-16T04:50:37.947Z,14.08
2023-05-16T04:53:07.136Z,14.18
2023-05-16T04:55:34.324Z,14.23
2023-05-16T04:58:03.932Z,14.27
2023-05-16T05:00:30.908Z,14.47
2023-05-16T05:02:57.985Z,14.24
2023-05-16T05:05:25.210Z,14.38
2023-05-16T05:07:52.653Z,14.19
2023-05-16T05:10:19.696Z,14.18
2023-05-16T05:12:49.121Z,14.12
2023-05-16T05:15:16.191Z,14.10
2023-05-16T05:17:43.234Z,14.39
2023-05-16T05:20:11.800Z,14.29
2023-05-16T05:22:38.963Z,13.99
2023-05-16T05:25:11.284Z,14.01
2023-05-16T05:27:42.809Z,13.89
2023-05-16T05:30:12.671Z,13.98
2023-05-16T05:32:42.106Z,14.08
2023-05-16T05:35:12.426Z,13.93
2023-05-16T05:37:39.365Z,14.23
2023-05-16T05:40:07.519Z,14.21
2023-05-16T05:42:34.532Z,14.39
2023-05-16T05:45:01.710Z,14.51
2023-05-16T05:47:31.082Z,14.44
2023-05-16T05:50:01.246Z,14.50
2023-05-16T05:52:28.484Z,14.66
2023-05-16T05:54:55.577Z,14.56
2023-05-16T05:57:22.758Z,14.94
2023-05-16T05:59:49.989Z,15.02
2023-05-16T06:02:17.629Z,15.25
2023-05-16T06:04:45.387Z,15.60
2023-05-16T06:07:12.949Z,15.80
2023-05-16T06:09:39.960Z,15.80
2023-05-16T06:12:12.533Z,15.54
2023-05-16T06:14:40.242Z,15.56
2023-05-16T06:17:07.375Z,15.34
2023-05-16T06:19:38.949Z,15.67
2023-05-16T06:22:11.247Z,15.59
2023-05-16T06:24:38.496Z,15.33
2023-05-16T06:27:06.066Z,15.01
2023-05-16T06:29:33.092Z,15.02
2023-05-16T06:32:00.117Z,15.49
2023-05-16T06:34:29.690Z,15.67
2023-05-16T06:36:56.832Z,15.49
2023-05-16T06:39:26.361Z,15.69
2023-05-16T06:41:56.682Z,15.71
2023-05-16T06:44:27.730Z,15.91
2023-05-16T06:46:57.886Z,15.94
2023-05-16T06:49:24.981Z,16.07
2023-05-16T06:51:54.442Z,15.70
2023-05-16T06:54:25.769Z,16.04
2023-05-16T06:56:55.748Z,15.72
2023-05-16T06:59:22.846Z,15.54
2023-05-16T07:01:52.694Z,15.89
2023-05-16T07:04:19.978Z,15.76
2023-05-16T07:06:47.023Z,16.46
2023-05-16T07:09:14.283Z,16.84
2023-05-16T07:11:43.869Z,17.41
2023-05-16T07:14:13.996Z,17.68
2023-05-16T07:16:41.187Z,17.91
2023-05-16T07:19:08.658Z,17.47
2023-05-16T07:21:35.865Z,17.11
2023-05-16T07:24:02.994Z,16.69
2023-05-16T07:26:30.157Z,15.92
2023-05-16T07:29:05.090Z,15.92
2023-05-16T07:31:32.392Z,15.48
2023-05-16T07:33:59.586Z,15.86
2023-05-16T07:36:26.774Z,16.20
2023-05-16T07:38:53.771Z,16.38
2023-05-16T07:41:21.799Z,16.41
2023-05-16T07:43:48.798Z,16.71
2023-05-16T07:46:15.988Z,17.45
2023-05-16T07:48:45.708Z,17.82
2023-05-16T07:51:12.829Z,17.66
2023-05-16T07:53:39.825Z,18.11
2023-05-16T07:56:08.574Z,17.97
2023-05-16T07:58:39.068Z,17.91
2023-05-16T08:01:06.652Z,18.32
2023-05-16T08:03:33.942Z,17.81
2023-05-16T08:06:01.383Z,17.50
2023-05-16T08:08:31.192Z,17.59
2023-05-16T08:11:00.426Z,18.12
2023-05-16T08:13:27.414Z,18.39
2023-05-16T08:15:59.104Z,18.67
2023-05-16T08:18:26.228Z,18.89
2023-05-16T08:20:53.193Z,18.99
2023-05-16T08:23:22.544Z,19.02
2023-05-16T08:25:52.062Z,18.56
2023-05-16T08:28:19.205Z,18.67
2023-05-16T08:30:48.028Z,18.78
2023-05-16T08:33:16.054Z,19.06
2023-05-16T08:35:44.462Z,19.30
2023-05-16T08:38:14.207Z,19.53
2023-05-16T08:40:42.891Z,19.90
2023-05-16T08:43:12.546Z,19.79
2023-05-16T08:45:42.807Z,20.01
2023-05-16T08:48:12.080Z,20.33
2023-05-16T08:50:39.720Z,20.55
2023-05-16T08:53:09.921Z,20.35
2023-05-16T08:55:38.066Z,19.96
2023-05-16T08:58:08.102Z,19.59
2023-05-16T09:00:36.367Z,19.21
2023-05-16T09:03:04.064Z,19.19
2023-05-16T09:05:34.228Z,19.48
2023-05-16T09:08:01.280Z,19.47
2023-05-16T09:10:31.177Z,19.38
2023-05-16T09:13:00.481Z,19.98
2023-05-16T09:15:33.591Z,20.44
2023-05-16T09:18:06.394Z,21.05
2023-05-16T09:20:33.406Z,20.88
2023-05-16T09:23:01.178Z,20.42
2023-05-16T09:25:33.416Z,20.26
2023-05-16T09:28:03.319Z,20.00
2023-05-16T09:30:35.325Z,19.56
2023-05-16T09:33:03.337Z,19.03
2023-05-16T09:35:43.849Z,19.63
2023-05-16T09:38:22.392Z,19.52
2023-05-16T09:40:51.925Z,19.94
2023-05-16T09:43:23.497Z,19.96
2023-05-16T09:45:53.060Z,20.51
2023-05-16T09:48:21.988Z,20.74
2023-05-16T09:50:53.260Z,20.64
2023-05-16T09:53:32.604Z,20.77
2023-05-16T09:56:04.501Z,20.78
2023-05-16T09:58:33.020Z,20.55
2023-05-16T10:01:00.195Z,20.65
2023-05-16T10:03:27.935Z,20.41
2023-05-16T10:05:56.245Z,20.09
2023-05-16T10:08:27.488Z,20.80
2023-05-16T10:10:56.926Z,21.19
2023-05-16T10:13:32.140Z,21.27
2023-05-16T10:16:11.277Z,21.42
2023-05-16T10:18:41.193Z,22.06
2023-05-16T10:21:18.218Z,22.03
2023-05-16T10:23:52.636Z,21.24
2023-05-16T10:26:23.622Z,20.69
2023-05-16T10:28:52.071Z,20.22
2023-05-16T10:31:19.784Z,20.67
2023-05-16T10:33:48.067Z,20.78
2023-05-16T10:36:17.001Z,20.79
2023-05-16T10:38:48.152Z,20.47
2023-05-16T10:41:18.157Z,19.72
2023-05-16T10:43:56.892Z,20.02
2023-05-16T10:46:25.596Z,20.27
2023-05-16T10:48:56.543Z,20.35
2023-05-16T10:51:40.268Z,21.06
2023-05-16T10:54:12.803Z,21.57
2023-05-16T10:56:40.333Z,21.07
2023-05-16T10:59:27.147Z,20.85
2023-05-16T11:01:56.563Z,21.14
2023-05-16T11:04:24.001Z,21.35
2023-05-16T11:06:56.685Z,20.86
2023-05-16T11:09:29.112Z,20.92
2023-05-16T11:12:04.381Z,20.41
2023-05-16T11:14:34.356Z,20.26
2023-05-16T11:17:23.301Z,19.99
2023-05-16T11:20:00.870Z,19.15
2023-05-16T11:22:41.483Z,19.18
2023-05-16T11:25:10.707Z,19.65
2023-05-16T11:27:48.277Z,20.08
2023-05-16T11:30:19.910Z,20.87
2023-05-16T11:32:48.768Z,21.25
2023-05-16T11:35:18.311Z,20.38
2023-05-16T11:37:47.108Z,20.12
2023-05-16T11:40:18.000Z,20.50
2023-05-16T11:42:48.052Z,20.51
2023-05-16T11:45:24.758Z,20.28
2023-05-16T11:47:52.435Z,20.06
2023-05-16T11:50:24.258Z,19.88
2023-05-16T11:52:56.742Z,19.67
2023-05-16T11:55:41.212Z,20.21
2023-05-16T11:58:12.546Z,20.26
2023-05-16T12:00:54.261Z,20.54
2023-05-16T12:03:24.355Z,20.77
2023-05-16T12:05:57.105Z,20.50
2023-05-16T12:08:26.828Z,20.63
2023-05-16T12:10:56.652Z,20.72
2023-05-16T12:13:28.205Z,20.76
2023-05-16T12:15:55.529Z,21.17
2023-05-16T12:18:25.349Z,21.33
2023-05-16T12:20:52.553Z,21.84
2023-05-16T12:23:19.876Z,21.39
2023-05-16T12:25:50.105Z,21.19
2023-05-16T12:28:17.375Z,21.44
2023-05-16T12:30:50.141Z,21.40
2023-05-16T12:33:17.467Z,21.19
2023-05-16T12:35:47.702Z,20.98
2023-05-16T12:38:17.432Z,21.62
2023-05-16T12:40:45.033Z,21.62
2023-05-16T12:43:16.532Z,21.07
2023-05-16T12:45:54.777Z,21.42
2023-05-16T12:48:32.438Z,21.60
2023-05-16T12:51:18.081Z,20.66
2023-05-16T12:54:01.382Z,20.06
2023-05-16T12:56:33.024Z,19.59
2023-05-16T12:59:00.065Z,19.71
2023-05-16T13:01:27.291Z,19.74
2023-05-16T13:03:54.544Z,19.35
2023-05-16T13:06:24.104Z,19.33
2023-05-16T13:08:53.556Z,18.78
2023-05-16T13:11:21.015Z,18.84
2023-05-16T13:13:48.147Z,18.67
2023-05-16T13:16:16.548Z,18.90
2023-05-16T13:18:46.243Z,19.30
2023-05-16T13:21:13.235Z,18.99
2023-05-16T13:23:40.220Z,19.28
2023-05-16T13:26:07.516Z,19.70
2023-05-16T13:28:34.534Z,19.35
2023-05-16T13:31:04.438Z,19.71
2023-05-16T13:33:31.464Z,19.74
2023-05-16T13:35:58.677Z,20.11
2023-05-16T13:38:28.781Z,19.93
2023-05-16T13:40:55.793Z,19.46
2023-05-16T13:43:22.794Z,19.56
2023-05-16T13:45:50.087Z,19.43
2023-05-16T13:48:19.635Z,19.38
2023-05-16T13:50:47.195Z,19.64
2023-05-16T13:53:16.818Z,19.66
2023-05-16T13:55:46.354Z,19.60
2023-05-16T13:58:13.439Z,19.42
2023-05-16T14:00:45.262Z,19.61
2023-05-16T14:03:13.876Z,19.80
2023-05-16T14:05:43.085Z,20.03
2023-05-16T14:08:14.210Z,19.90
2023-05-16T14:10:41.255Z,20.11
2023-05-16T14:13:10.872Z,19.80
2023-05-16T14:15:37.825Z,19.39
2023-05-16T14:18:07.606Z,18.89
2023-05-16T14:20:34.721Z,18.83
2023-05-16T14:23:03.900Z,19.00
2023-05-16T14:25:33.481Z,19.10
2023-05-16T14:28:00.544Z,19.16
2023-05-16T14:30:27.906Z,19.72
2023-05-16T14:32:55.215Z,19.66
2023-05-16T14:35:22.372Z,19.30
2023-05-16T14:37:52.017Z,19.13
2023-05-16T14:40:19.069Z,18.43
2023-05-16T14:42:46.298Z,18.45
2023-05-16T14:45:16.092Z,18.22
2023-05-16T14:47:43.819Z,18.21
2023-05-16T14:50:11.533Z,17.84
2023-05-16T14:52:41.355Z,17.93
2023-05-16T14:55:08.686Z,17.88
2023-05-16T14:57:38.210Z,18.05
2023-05-16T15:00:07.418Z,17.81
2023-05-16T15:02:34.517Z,17.94
2023-05-16T15:05:01.802Z,17.54
2023-05-16T15:07:29.020Z,17.39
2023-05-16T15:09:56.643Z,16.91
2023-05-16T15:12:23.686Z,17.13
2023-05-16T15:14:50.772Z,17.03
2023-05-16T15:17:19.978Z,17.13
2023-05-16T15:19:49.002Z,17.25
2023-05-16T15:22:15.953Z,17.63
2023-05-16T15:24:43.129Z,17.69
2023-05-16T15:27:12.273Z,17.85
2023-05-16T15:29:39.274Z,17.82
2023-05-16T15:32:06.950Z,17.90
2023-05-16T15:34:35.596Z,17.80
2023-05-16T15:37:05.086Z,17.71
2023-05-16T15:39:32.145Z,17.73
2023-05-16T15:42:09.914Z,17.81
2023-05-16T15:44:39.621Z,17.66
2023-05-16T15:47:10.798Z,17.77
2023-05-16T15:49:40.206Z,18.01
2023-05-16T15:52:08.840Z,18.04
2023-05-16T15:54:37.877Z,18.23
2023-05-16T15:57:05.244Z,18.21
2023-05-16T15:59:34.881Z,18.21
2023-05-16T16:02:05.436Z,17.97
2023-05-16T16:04:37.660Z,18.05
2023-05-16T16:07:10.905Z,18.48
2023-05-16T16:09:40.403Z,18.00
2023-05-16T16:12:08.074Z,18.06
2023-05-16T16:14:37.734Z,17.96
2023-05-16T16:17:07.367Z,17.94
2023-05-16T16:19:34.365Z,17.90
2023-05-16T16:22:01.459Z,18.03
2023-05-16T16:24:31.531Z,18.02
2023-05-16T16:26:58.501Z,17.64
2023-05-16T16:29:29.052Z,17.53
2023-05-16T16:31:58.889Z,17.67
2023-05-16T16:34:25.984Z,17.55
2023-05-16T16:36:53.244Z,17.40
2023-05-16T16:39:23.156Z,17.34
2023-05-16T16:41:54.708Z,17.43
2023-05-16T16:44:21.657Z,17.37
2023-05-16T16:46:48.671Z,17.05
2023-05-16T16:49:15.836Z,17.03
2023-05-16T16:51:42.901Z,17.07
2023-05-16T16:54:09.939Z,17.10
2023-05-16T16:56:39.966Z,16.97
2023-05-16T16:59:06.892Z,16.70
2023-05-16T17:01:35.028Z,16.55
2023-05-16T17:04:02.325Z,16.51
2023-05-16T17:06:30.222Z,16.64
2023-05-16T17:09:02.458Z,16.91
2023-05-16T17:11:36.302Z,16.58
2023-05-16T17:14:06.409Z,16.44
2023-05-16T17:16:34.145Z,16.09
2023-05-16T17:19:04.594Z,16.07
2023-05-16T17:21:36.792Z,15.73
2023-05-16T17:24:07.401Z,15.71
2023-05-16T17:26:37.011Z,15.91
2023-05-16T17:29:05.188Z,15.97
2023-05-16T17:31:34.680Z,16.24
2023-05-16T17:34:01.833Z,16.29
2023-05-16T17:36:31.047Z,16.26
2023-05-16T17:38:59.317Z,15.79
2023-05-16T17:41:28.804Z,15.62
2023-05-16T17:43:55.779Z,15.79
2023-05-16T17:46:22.689Z,15.65
2023-05-16T17:48:52.731Z,15.77
2023-05-16T17:51:22.008Z,15.66
2023-05-16T17:53:51.455Z,15.44
2023-05-16T17:56:21.346Z,15.15
2023-05-16T17:58:48.833Z,15.19
2023-05-16T18:01:19.142Z,15.28
2023-05-16T18:03:46.180Z,15.37
2023-05-16T18:06:13.873Z,15.68
2023-05-16T18:08:41.142Z,15.77
2023-05-16T18:11:08.155Z,15.56
2023-05-16T18:13:35.180Z,15.47
2023-05-16T18:16:02.614Z,15.31
2023-05-16T18:18:29.788Z,15.33
2023-05-16T18:20:57.026Z,15.48
2023-05-16T18:23:24.834Z,15.52
2023-05-16T18:25:51.884Z,15.52
2023-05-16T18:28:21.776Z,15.21
2023-05-16T18:30:49.446Z,15.18
2023-05-16T18:33:16.939Z,15.25
2023-05-16T18:35:43.943Z,15.24
2023-05-16T18:38:20.272Z,15.16
2023-05-16T18:40:56.011Z,14.47
2023-05-16T18:43:25.538Z,14.62
2023-05-16T18:45:52.742Z,14.86
2023-05-16T18:48:20.251Z,14.78
2023-05-16T18:50:47.335Z,14.73
2023-05-16T18:53:14.349Z,14.83
2023-05-16T18:55:44.393Z,14.51
2023-05-16T18:58:11.570Z,14.37
2023-05-16T19:00:38.554Z,14.20
2023-05-16T19:03:09.878Z,14.23
2023-05-16T19:05:37.549Z,14.18
2023-05-16T19:08:05.057Z,14.05
2023-05-16T19:10:38.202Z,14.14
2023-05-16T19:13:08.899Z,14.22
2023-05-16T19:15:37.171Z,14.06
2023-05-16T19:18:06.642Z,13.98
2023-05-16T19:20:37.012Z,14.01
2023-05-16T19:23:04.061Z,13.94
2023-05-16T19:25:33.904Z,14.07
2023-05-16T19:28:01.022Z,14.00
2023-05-16T19:30:28.547Z,14.13
2023-05-16T19:32:55.823Z,14.13
2023-05-16T19:35:23.397Z,14.08
2023-05-16T19:37:53.591Z,13.87
2023-05-16T19:40:20.573Z,13.83
2023-05-16T19:42:50.049Z,13.67
2023-05-16T19:45:17.267Z,13.70
2023-05-16T19:47:44.289Z,13.52
2023-05-16T19:50:16.308Z,13.61
2023-05-16T19:52:45.727Z,13.51
2023-05-16T19:55:13.372Z,13.65
2023-05-16T19:57:45.054Z,13.58
2023-05-16T20:00:16.508Z,13.63
2023-05-16T20:02:46.040Z,13.76
2023-05-16T20:05:14.558Z,13.66
2023-05-16T20:07:41.713Z,13.59
2023-05-16T20:10:10.089Z,13.48
2023-05-16T20:12:37.498Z,13.63
2023-05-16T20:15:08.322Z,13.52
2023-05-16T20:17:39.802Z,13.46
2023-05-16T20:20:09.548Z,13.54
2023-05-16T20:22:41.416Z,13.33
2023-05-16T20:25:10.409Z,13.33
2023-05-16T20:27:38.175Z,13.39
2023-05-16T20:30:07.673Z,13.36
2023-05-16T20:32:37.823Z,13.52
2023-05-16T20:35:09.115Z,13.51
2023-05-16T20:37:36.164Z,13.54
2023-05-16T20:40:03.736Z,13.35
2023-05-16T20:42:30.777Z,13.41
2023-05-16T20:44:57.934Z,13.41
2023-05-16T20:47:27.563Z,13.53
2023-05-16T20:49:56.835Z,13.44
2023-05-16T20:52:24.035Z,13.60
2023-05-16T20:54:53.184Z,13.49
2023-05-16T20:57:22.231Z,13.45
2023-05-16T20:59:49.264Z,13.39
2023-05-16T21:02:16.483Z,13.56
2023-05-16T21:04:45.831Z,13.58
2023-05-16T21:07:12.924Z,13.45
2023-05-16T21:09:40.717Z,13.14
2023-05-16T21:12:08.167Z,13.16
2023-05-16T21:14:38.069Z,13.40
2023-05-16T21:17:05.144Z,13.50
2023-05-16T21:19:35.501Z,13.53
2023-05-16T21:22:05.152Z,13.48
2023-05-16T21:24:35.647Z,13.57
2023-05-16T21:27:04.185Z,13.75
2023-05-16T21:29:31.438Z,13.63
2023-05-16T21:31:58.995Z,13.67
2023-05-16T21:34:26.143Z,13.83
2023-05-16T21:36:53.882Z,13.69
2023-05-16T21:39:20.976Z,13.77
2023-05-16T21:41:48.018Z,13.75
2023-05-16T21:44:18.572Z,13.57
2023-05-16T21:46:50.077Z,13.57
2023-05-16T21:49:19.302Z,13.68
2023-05-16T21:51:48.701Z,13.87
2023-05-16T21:54:17.827Z,13.88
2023-05-16T21:56:44.955Z,13.92
2023-05-16T21:59:14.244Z,13.69
2023-05-16T22:01:41.242Z,13.58
2023-05-16T22:04:09.057Z,13.43
2023-05-16T22:06:36.395Z,13.29
2023-05-16T22:09:03.546Z,13.27
2023-05-16T22:11:30.576Z,13.34
2023-05-16T22:13:57.691Z,13.22
2023-05-16T22:16:26.755Z,13.32
2023-05-16T22:18:56.327Z,13.30
2023-05-16T22:21:25.584Z,13.21
2023-05-16T22:23:52.595Z,13.41
2023-05-16T22:26:19.641Z,13.41
2023-05-16T22:28:51.225Z,13.18
2023-05-16T22:31:18.252Z,13.19
2023-05-16T22:33:51.015Z,12.97
2023-05-16T22:36:21.035Z,13.02
2023-05-16T22:38:51.322Z,13.08
2023-05-16T22:41:18.409Z,12.91
2023-05-16T22:43:45.496Z,13.10
2023-05-16T22:46:12.629Z,12.91
2023-05-16T22:48:44.442Z,13.06
2023-05-16T22:51:11.532Z,13.00
2023-05-16T22:53:40.799Z,13.07
2023-05-16T22:56:08.511Z,13.13
2023-05-16T22:58:38.271Z,13.02
2023-05-16T23:01:07.885Z,13.10
2023-05-16T23:03:35.166Z,12.97
2023-05-16T23:06:04.740Z,13.05
2023-05-16T23:08:31.809Z,13.28
2023-05-16T23:10:58.846Z,13.25
2023-05-16T23:13:28.373Z,13.20
2023-05-16T23:15:55.612Z,13.07
2023-05-16T23:18:22.713Z,13.09
2023-05-16T23:20:49.791Z,13.19
2023-05-16T23:23:19.435Z,13.09
2023-05-16T23:25:46.855Z,12.94
2023-05-16T23:28:14.945Z,12.85
2023-05-16T23:30:41.994Z,12.77
2023-05-16T23:33:11.345Z,12.88
2023-05-16T23:35:38.553Z,13.04
2023-05-16T23:38:05.574Z,12.91
2023-05-16T23:40:32.649Z,12.93
2023-05-16T23:42:59.833Z,12.90
2023-05-16T23:45:27.982Z,12.85
2023-05-16T23:47:55.086Z,12.83
2023-05-16T23:50:24.532Z,12.89
2023-05-16T23:52:51.599Z,12.95
2023-05-16T23:55:20.353Z,12.75
2023-05-16T23:57:47.610Z,12.57
